Portada
METAR-TAF:

METAR-TAF

Aeroports :

Porto Alegre, Rio Grande do Sul, Brasil

latitud: 30-00S, longitud: 051-11W, altitud: 3 m

Observació

L'informe es va fer fa 25 minuts, a les 19:00 UTC
Vent 12 kt del Est/Nord-Est
Temperatura 33°C
Humitat 46%
Pressió 1009 hPa
Visibilitat 10 km o més
sense núvols per sota de 1500 mi sense presència de cumulonimbus.

METAR: SBPA 211900Z 07012KT CAVOK 33/20 Q1009

Hora: 17:25 (19:25 UTC)

Pronòstic

L'informe es va fer fa 4 hores i 25 minuts, a les 15:00 UTC
Pronòstic vàlid del 21 a les 18 UTC al 22 a les 18 UTC
Vent 9 kt del Est/Sud-Est
Visibilitat 10 km o més
sense núvols per sota de 1500 mi sense presència de cumulonimbus.
Probabilitat 30%
l' 22 a les 08 UTC al 22 a les 10 UTC
Visibilitat 10 km o més
Cel ennuvolat a una alçada de 800 ft

TAF: SBPA 211500Z 2118/2218 11009KT CAVOK TX34/2118Z TN20/2208Z PROB30 2208/2210 9999 BKN008 RMK PCO

Observacions i pronòstics meteorològics de més de 4000 aeroports (METAR i TAF).

Les estacions disponibles són els punts grocs i vermells al mapa.

Posi el ratolí al punt desitjat per veure el nom de l'estació.

Feu clic per veure les observacions i els pronòstics meteorològics.

Per canviar el mapa: feu clic els botons verds amb una creu de color negre per apropar; al botó verd amb un guió per allunyar la imatge; o en les fletxes verdes per a mapes adjacents.


METAR-TAF: